sensor_id;sensor_type;location;lat;lon;timestamp;pressure;altitude;pressure_sealevel;temperature;humidity
44103;BME280;29769;42.178;24.742;2023-04-03T00:01:10;98958.56;;;10.85;70.20
44103;BME280;29769;42.178;24.742;2023-04-03T00:03:55;98958.84;;;10.75;70.45
44103;BME280;29769;42.178;24.742;2023-04-03T00:06:40;98958.69;;;10.81;69.58
44103;BME280;29769;42.178;24.742;2023-04-03T00:09:24;98960.34;;;10.83;68.95
44103;BME280;29769;42.178;24.742;2023-04-03T00:12:09;98956.00;;;10.82;68.80
44103;BME280;29769;42.178;24.742;2023-04-03T00:14:55;98962.28;;;10.77;69.34
44103;BME280;29769;42.178;24.742;2023-04-03T00:17:40;98970.59;;;10.61;69.93
44103;BME280;29769;42.178;24.742;2023-04-03T00:20:25;98969.22;;;10.48;70.88
44103;BME280;29769;42.178;24.742;2023-04-03T00:23:11;98964.25;;;10.36;71.88
44103;BME280;29769;42.178;24.742;2023-04-03T00:25:56;98972.38;;;10.27;72.51
44103;BME280;29769;42.178;24.742;2023-04-03T00:28:41;98964.78;;;10.16;73.29
44103;BME280;29769;42.178;24.742;2023-04-03T00:31:26;98971.91;;;10.10;74.19
44103;BME280;29769;42.178;24.742;2023-04-03T00:34:11;98964.31;;;9.99;75.13
44103;BME280;29769;42.178;24.742;2023-04-03T00:36:57;98959.28;;;9.90;75.31
44103;BME280;29769;42.178;24.742;2023-04-03T00:39:42;98974.00;;;9.96;75.39
44103;BME280;29769;42.178;24.742;2023-04-03T00:42:27;98975.84;;;9.92;75.62
44103;BME280;29769;42.178;24.742;2023-04-03T00:48:04;98966.53;;;9.79;76.09
44103;BME280;29769;42.178;24.742;2023-04-03T00:50:52;98924.13;;;9.59;76.03
44103;BME280;29769;42.178;24.742;2023-04-03T00:53:41;98958.69;;;9.77;75.99
44103;BME280;29769;42.178;24.742;2023-04-03T00:56:27;98977.78;;;9.86;75.76
44103;BME280;29769;42.178;24.742;2023-04-03T00:59:21;98950.88;;;9.74;76.00
44103;BME280;29769;42.178;24.742;2023-04-03T01:02:10;98968.94;;;9.90;76.48
44103;BME280;29769;42.178;24.742;2023-04-03T01:04:55;98958.56;;;9.82;76.48
44103;BME280;29769;42.178;24.742;2023-04-03T01:07:40;98963.81;;;9.83;76.82
44103;BME280;29769;42.178;24.742;2023-04-03T01:10:25;98963.81;;;9.83;76.43
44103;BME280;29769;42.178;24.742;2023-04-03T01:13:37;98958.63;;;9.80;76.41
44103;BME280;29769;42.178;24.742;2023-04-03T01:16:24;98958.63;;;9.80;76.26
44103;BME280;29769;42.178;24.742;2023-04-03T01:19:14;98961.31;;;9.77;76.76
44103;BME280;29769;42.178;24.742;2023-04-03T01:22:19;98973.63;;;9.75;77.09
44103;BME280;29769;42.178;24.742;2023-04-03T01:25:09;98963.91;;;9.79;77.02
44103;BME280;29769;42.178;24.742;2023-04-03T01:27:54;98963.69;;;9.88;76.83
44103;BME280;29769;42.178;24.742;2023-04-03T01:30:44;98968.28;;;9.80;76.97
44103;BME280;29769;42.178;24.742;2023-04-03T01:33:31;98974.53;;;9.74;78.42
44103;BME280;29769;42.178;24.742;2023-04-03T01:36:19;98973.75;;;9.69;79.26
44103;BME280;29769;42.178;24.742;2023-04-03T01:39:05;98964.25;;;9.65;79.76
44103;BME280;29769;42.178;24.742;2023-04-03T01:41:50;98961.81;;;9.56;80.72
44103;BME280;29769;42.178;24.742;2023-04-03T01:44:42;98960.28;;;9.48;81.80
44103;BME280;29769;42.178;24.742;2023-04-03T01:47:27;98961.13;;;9.48;81.72
44103;BME280;29769;42.178;24.742;2023-04-03T01:50:12;98969.03;;;9.47;82.04
44103;BME280;29769;42.178;24.742;2023-04-03T01:52:57;98972.75;;;9.36;83.75
44103;BME280;29769;42.178;24.742;2023-04-03T01:55:42;98972.03;;;9.30;83.89
44103;BME280;29769;42.178;24.742;2023-04-03T01:58:27;98975.78;;;9.18;85.53
44103;BME280;29769;42.178;24.742;2023-04-03T02:01:13;98982.09;;;9.10;86.25
44103;BME280;29769;42.178;24.742;2023-04-03T02:03:59;98984.09;;;8.97;88.32
44103;BME280;29769;42.178;24.742;2023-04-03T02:06:44;98984.22;;;8.91;90.22
44103;BME280;29769;42.178;24.742;2023-04-03T02:09:29;98988.72;;;8.84;91.44
44103;BME280;29769;42.178;24.742;2023-04-03T02:12:14;98987.84;;;8.85;92.12
44103;BME280;29769;42.178;24.742;2023-04-03T02:15:01;98984.56;;;8.73;93.82
44103;BME280;29769;42.178;24.742;2023-04-03T02:17:46;98984.72;;;8.67;94.90
44103;BME280;29769;42.178;24.742;2023-04-03T02:20:32;98983.91;;;8.62;96.38
44103;BME280;29769;42.178;24.742;2023-04-03T02:23:17;98988.28;;;8.61;95.90
44103;BME280;29769;42.178;24.742;2023-04-03T02:26:14;98968.41;;;8.49;97.06
44103;BME280;29769;42.178;24.742;2023-04-03T02:28:59;98971.00;;;8.51;98.26
44103;BME280;29769;42.178;24.742;2023-04-03T02:31:44;98975.44;;;8.49;99.00
44103;BME280;29769;42.178;24.742;2023-04-03T02:34:29;98977.97;;;8.54;98.37
44103;BME280;29769;42.178;24.742;2023-04-03T02:37:15;98967.75;;;8.38;99.92
44103;BME280;29769;42.178;24.742;2023-04-03T02:40:03;98984.09;;;8.51;99.15
44103;BME280;29769;42.178;24.742;2023-04-03T02:42:48;98984.19;;;8.46;99.10
44103;BME280;29769;42.178;24.742;2023-04-03T02:45:33;98983.31;;;8.47;99.40
44103;BME280;29769;42.178;24.742;2023-04-03T02:48:18;98981.75;;;8.36;99.99
44103;BME280;29769;42.178;24.742;2023-04-03T02:51:03;98955.75;;;8.22;100.00
44103;BME280;29769;42.178;24.742;2023-04-03T02:53:47;98972.47;;;8.17;100.00
44103;BME280;29769;42.178;24.742;2023-04-03T02:56:36;98969.22;;;8.02;100.00
44103;BME280;29769;42.178;24.742;2023-04-03T02:59:21;98972.72;;;8.00;100.00
44103;BME280;29769;42.178;24.742;2023-04-03T03:02:08;98979.69;;;8.02;100.00
44103;BME280;29769;42.178;24.742;2023-04-03T03:04:53;98970.09;;;8.03;100.00
44103;BME280;29769;42.178;24.742;2023-04-03T03:07:38;98969.22;;;8.02;100.00
44103;BME280;29769;42.178;24.742;2023-04-03T03:10:23;98965.56;;;8.11;100.00
44103;BME280;29769;42.178;24.742;2023-04-03T03:13:07;98964.78;;;8.08;100.00
44103;BME280;29769;42.178;24.742;2023-04-03T03:15:52;98957.94;;;7.99;100.00
44103;BME280;29769;42.178;24.742;2023-04-03T03:18:37;98936.34;;;7.83;100.00
44103;BME280;29769;42.178;24.742;2023-04-03T03:21:22;98949.31;;;7.92;100.00
44103;BME280;29769;42.178;24.742;2023-04-03T03:24:07;98955.47;;;7.90;100.00
44103;BME280;29769;42.178;24.742;2023-04-03T03:26:52;98945.00;;;7.88;100.00
44103;BME280;29769;42.178;24.742;2023-04-03T03:29:37;98943.28;;;7.86;100.00
44103;BME280;29769;42.178;24.742;2023-04-03T03:32:23;98924.34;;;7.70;100.00
44103;BME280;29769;42.178;24.742;2023-04-03T03:35:08;98941.59;;;7.85;100.00
44103;BME280;29769;42.178;24.742;2023-04-03T03:37:53;98940.63;;;7.89;100.00
44103;BME280;29769;42.178;24.742;2023-04-03T03:40:38;98940.59;;;7.90;100.00
44103;BME280;29769;42.178;24.742;2023-04-03T03:43:23;98938.91;;;7.86;100.00
44103;BME280;29769;42.178;24.742;2023-04-03T03:46:11;98941.66;;;7.80;100.00
44103;BME280;29769;42.178;24.742;2023-04-03T03:48:55;98941.81;;;7.71;100.00
44103;BME280;29769;42.178;24.742;2023-04-03T03:51:41;98949.75;;;7.65;100.00
44103;BME280;29769;42.178;24.742;2023-04-03T03:54:26;98955.03;;;7.60;100.00
44103;BME280;29769;42.178;24.742;2023-04-03T03:57:11;98954.44;;;7.42;100.00
44103;BME280;29769;42.178;24.742;2023-04-03T03:59:56;98952.44;;;6.99;100.00
44103;BME280;29769;42.178;24.742;2023-04-03T04:02:42;98968.34;;;6.78;100.00
44103;BME280;29769;42.178;24.742;2023-04-03T04:05:30;98942.44;;;6.61;100.00
44103;BME280;29769;42.178;24.742;2023-04-03T04:08:17;98978.06;;;6.68;100.00
44103;BME280;29769;42.178;24.742;2023-04-03T04:11:03;98984.28;;;6.58;100.00
44103;BME280;29769;42.178;24.742;2023-04-03T04:13:48;98990.44;;;6.51;100.00
44103;BME280;29769;42.178;24.742;2023-04-03T04:16:35;98999.28;;;6.38;100.00
44103;BME280;29769;42.178;24.742;2023-04-03T04:19:26;98992.25;;;6.45;100.00
44103;BME280;29769;42.178;24.742;2023-04-03T04:22:11;98991.31;;;6.50;100.00
44103;BME280;29769;42.178;24.742;2023-04-03T04:24:56;98987.94;;;6.39;100.00
44103;BME280;29769;42.178;24.742;2023-04-03T04:27:41;98987.22;;;6.23;100.00
44103;BME280;29769;42.178;24.742;2023-04-03T04:30:27;99005.47;;;6.31;100.00
44103;BME280;29769;42.178;24.742;2023-04-03T04:33:14;99015.78;;;6.42;100.00
44103;BME280;29769;42.178;24.742;2023-04-03T04:36:00;99020.88;;;6.57;100.00
44103;BME280;29769;42.178;24.742;2023-04-03T04:38:45;99018.03;;;6.78;100.00
44103;BME280;29769;42.178;24.742;2023-04-03T04:41:30;99011.72;;;6.97;100.00
44103;BME280;29769;42.178;24.742;2023-04-03T04:44:16;99011.47;;;7.17;100.00
44103;BME280;29769;42.178;24.742;2023-04-03T04:47:00;99014.63;;;7.42;100.00
44103;BME280;29769;42.178;24.742;2023-04-03T04:49:46;98980.41;;;7.55;100.00
44103;BME280;29769;42.178;24.742;2023-04-03T04:52:32;99012.06;;;7.97;100.00
44103;BME280;29769;42.178;24.742;2023-04-03T04:55:17;99016.00;;;8.24;100.00
44103;BME280;29769;42.178;24.742;2023-04-03T04:58:02;99019.94;;;8.51;100.00
44103;BME280;29769;42.178;24.742;2023-04-03T05:00:48;99027.31;;;8.78;100.00
44103;BME280;29769;42.178;24.742;2023-04-03T05:03:33;99029.53;;;8.99;100.00
44103;BME280;29769;42.178;24.742;2023-04-03T05:06:18;99026.72;;;9.08;100.00
44103;BME280;29769;42.178;24.742;2023-04-03T05:09:03;99029.91;;;9.22;100.00
44103;BME280;29769;42.178;24.742;2023-04-03T05:11:50;99029.00;;;9.25;100.00
44103;BME280;29769;42.178;24.742;2023-04-03T05:14:37;99003.59;;;8.84;100.00
44103;BME280;29769;42.178;24.742;2023-04-03T05:17:24;99025.78;;;9.11;100.00
44103;BME280;29769;42.178;24.742;2023-04-03T05:20:13;99034.28;;;9.23;100.00
44103;BME280;29769;42.178;24.742;2023-04-03T05:23:01;99031.41;;;9.35;100.00
44103;BME280;29769;42.178;24.742;2023-04-03T05:25:46;99042.47;;;9.50;100.00
44103;BME280;29769;42.178;24.742;2023-04-03T05:28:32;99039.53;;;9.63;100.00
44103;BME280;29769;42.178;24.742;2023-04-03T05:31:18;99042.59;;;9.83;99.28
44103;BME280;29769;42.178;24.742;2023-04-03T05:34:03;99051.03;;;9.98;96.99
44103;BME280;29769;42.178;24.742;2023-04-03T05:36:51;99050.56;;;10.19;95.54
44103;BME280;29769;42.178;24.742;2023-04-03T05:39:36;99038.50;;;10.46;92.81
44103;BME280;29769;42.178;24.742;2023-04-03T05:42:24;99045.13;;;10.62;91.21
44103;BME280;29769;42.178;24.742;2023-04-03T05:45:09;99054.28;;;10.80;89.23
44103;BME280;29769;42.178;24.742;2023-04-03T05:47:54;99045.91;;;10.98;88.85
44103;BME280;29769;42.178;24.742;2023-04-03T05:50:39;99049.84;;;11.14;87.87
44103;BME280;29769;42.178;24.742;2023-04-03T05:53:31;99060.72;;;11.33;86.90
44103;BME280;29769;42.178;24.742;2023-04-03T05:56:21;99054.88;;;11.52;84.60
44103;BME280;29769;42.178;24.742;2023-04-03T05:59:06;99055.88;;;11.79;81.02
44103;BME280;29769;42.178;24.742;2023-04-03T06:01:52;99043.19;;;11.92;75.79
44103;BME280;29769;42.178;24.742;2023-04-03T06:04:37;99060.00;;;11.88;72.49
44103;BME280;29769;42.178;24.742;2023-04-03T06:07:24;99070.28;;;11.66;72.99
44103;BME280;29769;42.178;24.742;2023-04-03T06:10:12;99065.06;;;11.65;72.25
44103;BME280;29769;42.178;24.742;2023-04-03T06:12:57;99064.53;;;11.53;73.65
44103;BME280;29769;42.178;24.742;2023-04-03T06:15:42;99059.44;;;11.47;74.21
44103;BME280;29769;42.178;24.742;2023-04-03T06:18:27;99067.94;;;11.26;75.42
44103;BME280;29769;42.178;24.742;2023-04-03T06:21:12;99057.06;;;11.38;76.82
44103;BME280;29769;42.178;24.742;2023-04-03T06:23:57;99073.63;;;11.73;75.39
44103;BME280;29769;42.178;24.742;2023-04-03T06:26:42;99048.41;;;11.93;74.58
44103;BME280;29769;42.178;24.742;2023-04-03T06:29:27;99068.28;;;12.31;72.46
44103;BME280;29769;42.178;24.742;2023-04-03T06:32:13;99045.63;;;12.26;71.09
44103;BME280;29769;42.178;24.742;2023-04-03T06:34:58;99032.34;;;12.29;71.15
44103;BME280;29769;42.178;24.742;2023-04-03T06:37:43;99048.53;;;12.44;68.12
44103;BME280;29769;42.178;24.742;2023-04-03T06:40:28;99039.63;;;12.47;67.59
44103;BME280;29769;42.178;24.742;2023-04-03T06:43:13;99054.50;;;12.49;66.89
44103;BME280;29769;42.178;24.742;2023-04-03T06:45:57;99064.06;;;12.54;67.14
44103;BME280;29769;42.178;24.742;2023-04-03T06:48:43;99069.06;;;12.07;69.66
44103;BME280;29769;42.178;24.742;2023-04-03T06:51:29;99084.88;;;12.07;73.34
44103;BME280;29769;42.178;24.742;2023-04-03T06:54:15;99075.13;;;12.37;73.99
44103;BME280;29769;42.178;24.742;2023-04-03T06:57:00;99072.13;;;12.21;73.50
44103;BME280;29769;42.178;24.742;2023-04-03T06:59:45;99067.06;;;11.86;74.94
44103;BME280;29769;42.178;24.742;2023-04-03T07:02:31;99049.41;;;11.89;75.32
44103;BME280;29769;42.178;24.742;2023-04-03T07:05:15;99073.09;;;12.19;73.68
44103;BME280;29769;42.178;24.742;2023-04-03T07:08:00;99079.34;;;12.42;72.13
44103;BME280;29769;42.178;24.742;2023-04-03T07:10:45;99065.28;;;12.68;69.28
44103;BME280;29769;42.178;24.742;2023-04-03T07:13:31;99070.19;;;13.05;67.55
44103;BME280;29769;42.178;24.742;2023-04-03T07:16:16;99076.63;;;13.23;66.27
44103;BME280;29769;42.178;24.742;2023-04-03T07:19:01;99073.97;;;13.23;64.81
44103;BME280;29769;42.178;24.742;2023-04-03T07:21:46;99080.91;;;13.01;65.42
44103;BME280;29769;42.178;24.742;2023-04-03T07:24:31;99077.31;;;13.28;65.52
44103;BME280;29769;42.178;24.742;2023-04-03T07:27:15;99072.09;;;13.50;61.50
44103;BME280;29769;42.178;24.742;2023-04-03T07:30:02;99065.22;;;13.69;63.72
44103;BME280;29769;42.178;24.742;2023-04-03T07:32:47;99060.97;;;13.88;63.73
44103;BME280;29769;42.178;24.742;2023-04-03T07:35:32;99062.09;;;13.81;63.92
44103;BME280;29769;42.178;24.742;2023-04-03T07:38:17;99063.06;;;13.57;64.01
44103;BME280;29769;42.178;24.742;2023-04-03T07:41:03;99058.91;;;13.73;63.84
44103;BME280;29769;42.178;24.742;2023-04-03T07:43:48;99059.75;;;13.97;63.46
44103;BME280;29769;42.178;24.742;2023-04-03T07:46:34;99058.13;;;14.38;62.34
44103;BME280;29769;42.178;24.742;2023-04-03T07:49:19;99067.72;;;14.82;60.21
44103;BME280;29769;42.178;24.742;2023-04-03T07:52:04;99055.53;;;15.39;57.49
44103;BME280;29769;42.178;24.742;2023-04-03T07:54:50;99052.94;;;15.76;55.34
44103;BME280;29769;42.178;24.742;2023-04-03T07:57:34;99051.72;;;16.21;53.11
44103;BME280;29769;42.178;24.742;2023-04-03T08:00:19;99046.41;;;16.39;51.60
44103;BME280;29769;42.178;24.742;2023-04-03T08:03:06;99038.50;;;16.38;51.43
44103;BME280;29769;42.178;24.742;2023-04-03T08:05:51;99037.38;;;16.61;50.09
44103;BME280;29769;42.178;24.742;2023-04-03T08:08:38;99029.88;;;16.86;49.34
44103;BME280;29769;42.178;24.742;2023-04-03T08:11:22;99027.47;;;17.16;48.47
44103;BME280;29769;42.178;24.742;2023-04-03T08:14:08;99026.50;;;17.83;46.92
44103;BME280;29769;42.178;24.742;2023-04-03T08:16:52;99024.78;;;17.82;46.40
44103;BME280;29769;42.178;24.742;2023-04-03T08:19:38;99017.25;;;18.21;45.76
44103;BME280;29769;42.178;24.742;2023-04-03T08:22:23;99024.38;;;18.20;44.67
44103;BME280;29769;42.178;24.742;2023-04-03T08:25:08;99025.53;;;18.46;44.10
44103;BME280;29769;42.178;24.742;2023-04-03T08:27:53;99021.75;;;18.66;44.15
44103;BME280;29769;42.178;24.742;2023-04-03T08:30:41;99021.03;;;18.01;42.63
44103;BME280;29769;42.178;24.742;2023-04-03T08:33:26;99006.72;;;17.55;42.40
44103;BME280;29769;42.178;24.742;2023-04-03T08:36:24;99009.88;;;17.79;42.75
44103;BME280;29769;42.178;24.742;2023-04-03T08:39:11;99013.94;;;17.36;44.58
44103;BME280;29769;42.178;24.742;2023-04-03T08:41:58;99004.13;;;17.38;45.28
44103;BME280;29769;42.178;24.742;2023-04-03T08:47:55;98987.88;;;16.77;46.47
44103;BME280;29769;42.178;24.742;2023-04-03T08:50:46;98986.13;;;16.06;49.13
44103;BME280;29769;42.178;24.742;2023-04-03T08:53:37;98965.09;;;16.20;49.90
44103;BME280;29769;42.178;24.742;2023-04-03T08:56:24;98974.84;;;16.36;49.38
44103;BME280;29769;42.178;24.742;2023-04-03T08:59:14;98967.66;;;15.85;50.79
44103;BME280;29769;42.178;24.742;2023-04-03T09:02:04;98976.69;;;15.63;51.67
44103;BME280;29769;42.178;24.742;2023-04-03T09:05:05;98976.69;;;15.44;52.33
44103;BME280;29769;42.178;24.742;2023-04-03T09:08:00;98959.91;;;15.25;52.93
44103;BME280;29769;42.178;24.742;2023-04-03T09:10:49;98983.47;;;15.12;54.33
44103;BME280;29769;42.178;24.742;2023-04-03T09:14:15;98967.16;;;15.21;55.26
44103;BME280;29769;42.178;24.742;2023-04-03T09:17:31;98977.59;;;15.24;56.19
44103;BME280;29769;42.178;24.742;2023-04-03T09:23:51;98971.06;;;15.51;55.50
44103;BME280;29769;42.178;24.742;2023-04-03T09:29:32;98968.78;;;14.85;57.47
44103;BME280;29769;42.178;24.742;2023-04-03T09:32:26;98976.72;;;14.85;57.91
44103;BME280;29769;42.178;24.742;2023-04-03T09:35:27;98966.88;;;14.88;58.46
44103;BME280;29769;42.178;24.742;2023-04-03T09:43:54;98963.03;;;14.55;59.06
44103;BME280;29769;42.178;24.742;2023-04-03T09:46:38;98966.34;;;14.60;58.46
44103;BME280;29769;42.178;24.742;2023-04-03T09:49:24;98966.75;;;14.29;59.16
44103;BME280;29769;42.178;24.742;2023-04-03T09:52:25;98953.22;;;14.37;60.83
44103;BME280;29769;42.178;24.742;2023-04-03T09:55:24;98944.41;;;14.36;58.69
44103;BME280;29769;42.178;24.742;2023-04-03T09:58:30;98937.47;;;14.54;58.36
44103;BME280;29769;42.178;24.742;2023-04-03T10:06:56;98958.25;;;14.43;59.68
44103;BME280;29769;42.178;24.742;2023-04-03T10:09:54;98957.88;;;14.30;59.73
44103;BME280;29769;42.178;24.742;2023-04-03T10:12:39;98958.09;;;14.25;61.25
44103;BME280;29769;42.178;24.742;2023-04-03T10:15:26;98947.06;;;13.94;64.35
44103;BME280;29769;42.178;24.742;2023-04-03T10:24:32;98949.75;;;13.93;72.88
44103;BME280;29769;42.178;24.742;2023-04-03T10:30:54;98947.09;;;13.93;77.56
44103;BME280;29769;42.178;24.742;2023-04-03T10:34:06;98938.16;;;13.95;77.53
44103;BME280;29769;42.178;24.742;2023-04-03T10:37:09;98946.53;;;14.06;78.26
44103;BME280;29769;42.178;24.742;2023-04-03T10:46:13;98950.25;;;14.22;78.04
44103;BME280;29769;42.178;24.742;2023-04-03T10:52:20;98953.16;;;14.38;76.20
44103;BME280;29769;42.178;24.742;2023-04-03T10:55:31;98969.34;;;14.09;76.29
44103;BME280;29769;42.178;24.742;2023-04-03T10:58:26;98964.13;;;14.07;80.50
44103;BME280;29769;42.178;24.742;2023-04-03T11:01:20;98962.09;;;13.92;80.93
44103;BME280;29769;42.178;24.742;2023-04-03T11:04:09;98961.75;;;13.79;82.93
44103;BME280;29769;42.178;24.742;2023-04-03T11:07:15;98958.72;;;13.89;89.29
44103;BME280;29769;42.178;24.742;2023-04-03T11:10:10;98964.97;;;13.86;87.70
44103;BME280;29769;42.178;24.742;2023-04-03T11:13:18;98970.13;;;13.67;90.83
44103;BME280;29769;42.178;24.742;2023-04-03T11:16:08;98962.38;;;13.63;92.56
44103;BME280;29769;42.178;24.742;2023-04-03T11:19:00;98967.94;;;13.57;97.19
44103;BME280;29769;42.178;24.742;2023-04-03T11:21:54;98968.28;;;13.48;98.27
44103;BME280;29769;42.178;24.742;2023-04-03T11:24:43;98957.22;;;13.60;98.77
44103;BME280;29769;42.178;24.742;2023-04-03T11:27:38;98958.81;;;13.64;97.39
44103;BME280;29769;42.178;24.742;2023-04-03T11:30:30;98953.53;;;13.64;100.00
44103;BME280;29769;42.178;24.742;2023-04-03T11:36:32;98944.69;;;13.65;100.00
44103;BME280;29769;42.178;24.742;2023-04-03T11:39:33;98951.75;;;13.64;100.00
44103;BME280;29769;42.178;24.742;2023-04-03T12:09:32;98911.81;;;14.56;100.00
44103;BME280;29769;42.178;24.742;2023-04-03T12:15:38;98913.59;;;14.55;100.00
44103;BME280;29769;42.178;24.742;2023-04-03T12:18:42;98913.59;;;14.55;100.00
44103;BME280;29769;42.178;24.742;2023-04-03T12:27:17;98908.28;;;14.35;100.00
44103;BME280;29769;42.178;24.742;2023-04-03T12:30:12;98903.19;;;14.31;100.00
44103;BME280;29769;42.178;24.742;2023-04-03T12:33:09;98895.97;;;14.14;100.00
44103;BME280;29769;42.178;24.742;2023-04-03T12:39:04;98892.63;;;13.89;100.00
44103;BME280;29769;42.178;24.742;2023-04-03T12:42:00;98887.78;;;13.78;100.00
44103;BME280;29769;42.178;24.742;2023-04-03T12:45:03;98884.63;;;13.68;100.00
44103;BME280;29769;42.178;24.742;2023-04-03T12:47:55;98884.03;;;13.62;100.00
44103;BME280;29769;42.178;24.742;2023-04-03T12:50:41;98877.91;;;13.61;100.00
44103;BME280;29769;42.178;24.742;2023-04-03T12:53:28;98877.41;;;13.52;100.00
44103;BME280;29769;42.178;24.742;2023-04-03T12:56:29;98877.34;;;13.53;100.00
44103;BME280;29769;42.178;24.742;2023-04-03T13:02:35;98876.53;;;13.29;100.00
44103;BME280;29769;42.178;24.742;2023-04-03T13:05:21;98882.72;;;13.28;100.00
44103;BME280;29769;42.178;24.742;2023-04-03T13:08:10;98857.84;;;13.12;100.00
44103;BME280;29769;42.178;24.742;2023-04-03T13:11:02;98870.69;;;13.21;100.00
44103;BME280;29769;42.178;24.742;2023-04-03T13:14:03;98862.88;;;13.18;100.00
44103;BME280;29769;42.178;24.742;2023-04-03T13:17:03;98849.81;;;13.15;100.00
44103;BME280;29769;42.178;24.742;2023-04-03T13:19:50;98860.31;;;13.17;100.00
44103;BME280;29769;42.178;24.742;2023-04-03T13:22:39;98855.28;;;13.09;100.00
44103;BME280;29769;42.178;24.742;2023-04-03T13:25:31;98851.72;;;13.10;100.00
44103;BME280;29769;42.178;24.742;2023-04-03T13:28:23;98845.88;;;13.02;100.00
44103;BME280;29769;42.178;24.742;2023-04-03T13:31:17;98841.34;;;13.06;100.00
44103;BME280;29769;42.178;24.742;2023-04-03T13:34:09;98850.59;;;12.94;100.00
44103;BME280;29769;42.178;24.742;2023-04-03T13:36:58;98846.25;;;12.93;100.00
44103;BME280;29769;42.178;24.742;2023-04-03T13:39:43;98837.97;;;12.79;100.00
44103;BME280;29769;42.178;24.742;2023-04-03T13:42:29;98834.69;;;12.72;100.00
44103;BME280;29769;42.178;24.742;2023-04-03T13:45:23;98830.09;;;12.77;100.00
44103;BME280;29769;42.178;24.742;2023-04-03T13:48:18;98821.50;;;12.72;100.00
44103;BME280;29769;42.178;24.742;2023-04-03T13:51:27;98812.75;;;12.72;100.00
44103;BME280;29769;42.178;24.742;2023-04-03T13:54:39;98797.84;;;12.71;100.00
44103;BME280;29769;42.178;24.742;2023-04-03T13:57:24;98793.59;;;12.67;100.00
44103;BME280;29769;42.178;24.742;2023-04-03T14:03:29;98787.66;;;12.60;100.00
44103;BME280;29769;42.178;24.742;2023-04-03T14:06:16;98787.16;;;12.51;100.00
44103;BME280;29769;42.178;24.742;2023-04-03T14:09:01;98737.22;;;12.23;100.00
44103;BME280;29769;42.178;24.742;2023-04-03T14:11:48;98758.03;;;12.30;100.00
44103;BME280;29769;42.178;24.742;2023-04-03T14:14:36;98752.53;;;12.36;100.00
44103;BME280;29769;42.178;24.742;2023-04-03T14:17:25;98763.75;;;12.41;100.00
44103;BME280;29769;42.178;24.742;2023-04-03T14:20:18;98763.75;;;12.41;100.00
44103;BME280;29769;42.178;24.742;2023-04-03T14:23:03;98767.59;;;12.56;100.00
44103;BME280;29769;42.178;24.742;2023-04-03T14:25:48;98768.97;;;12.66;100.00
44103;BME280;29769;42.178;24.742;2023-04-03T14:28:33;98775.41;;;12.59;100.00
44103;BME280;29769;42.178;24.742;2023-04-03T14:31:19;98772.06;;;12.54;100.00
44103;BME280;29769;42.178;24.742;2023-04-03T14:34:03;98764.28;;;12.51;100.00
44103;BME280;29769;42.178;24.742;2023-04-03T14:36:48;98769.50;;;12.53;100.00
44103;BME280;29769;42.178;24.742;2023-04-03T14:39:33;98766.34;;;12.43;100.00
44103;BME280;29769;42.178;24.742;2023-04-03T14:42:29;98773.69;;;12.35;100.00
44103;BME280;29769;42.178;24.742;2023-04-03T14:45:15;98763.94;;;12.37;100.00
44103;BME280;29769;42.178;24.742;2023-04-03T14:48:00;98760.69;;;12.30;100.00
44103;BME280;29769;42.178;24.742;2023-04-03T14:50:45;98764.22;;;12.29;100.00
44103;BME280;29769;42.178;24.742;2023-04-03T14:53:31;98757.19;;;12.30;100.00
44103;BME280;29769;42.178;24.742;2023-04-03T14:56:19;98741.63;;;12.22;100.00
44103;BME280;29769;42.178;24.742;2023-04-03T14:59:12;98759.25;;;12.22;100.00
44103;BME280;29769;42.178;24.742;2023-04-03T15:01:59;98761.09;;;12.18;100.00
44103;BME280;29769;42.178;24.742;2023-04-03T15:04:44;98753.44;;;12.12;100.00
44103;BME280;29769;42.178;24.742;2023-04-03T15:07:33;98749.03;;;12.13;100.00
44103;BME280;29769;42.178;24.742;2023-04-03T15:10:23;98748.22;;;12.11;100.00
44103;BME280;29769;42.178;24.742;2023-04-03T15:13:10;98740.88;;;12.19;100.00
44103;BME280;29769;42.178;24.742;2023-04-03T15:15:56;98736.34;;;12.22;100.00
44103;BME280;29769;42.178;24.742;2023-04-03T15:18:41;98720.19;;;12.08;100.00
44103;BME280;29769;42.178;24.742;2023-04-03T15:21:25;98730.91;;;12.27;100.00
44103;BME280;29769;42.178;24.742;2023-04-03T15:24:11;98727.47;;;12.25;100.00
44103;BME280;29769;42.178;24.742;2023-04-03T15:26:56;98725.00;;;12.20;100.00
44103;BME280;29769;42.178;24.742;2023-04-03T15:29:41;98713.91;;;12.12;100.00
44103;BME280;29769;42.178;24.742;2023-04-03T15:32:26;98713.28;;;12.04;100.00
44103;BME280;29769;42.178;24.742;2023-04-03T15:35:11;98707.13;;;12.05;100.00
44103;BME280;29769;42.178;24.742;2023-04-03T15:37:56;98705.22;;;12.09;100.00
44103;BME280;29769;42.178;24.742;2023-04-03T15:40:41;98699.00;;;12.11;100.00
44103;BME280;29769;42.178;24.742;2023-04-03T15:43:26;98682.13;;;12.15;100.00
44103;BME280;29769;42.178;24.742;2023-04-03T15:46:12;98682.97;;;12.17;100.00
44103;BME280;29769;42.178;24.742;2023-04-03T15:48:57;98681.06;;;12.21;100.00
44103;BME280;29769;42.178;24.742;2023-04-03T15:51:42;98664.41;;;12.19;100.00
44103;BME280;29769;42.178;24.742;2023-04-03T15:54:27;98681.41;;;12.35;100.00
44103;BME280;29769;42.178;24.742;2023-04-03T15:57:13;98671.44;;;12.41;100.00
44103;BME280;29769;42.178;24.742;2023-04-03T15:59:58;98667.78;;;12.45;100.00
44103;BME280;29769;42.178;24.742;2023-04-03T16:02:45;98659.63;;;12.52;100.00
44103;BME280;29769;42.178;24.742;2023-04-03T16:05:30;98658.81;;;12.49;100.00
44103;BME280;29769;42.178;24.742;2023-04-03T16:08:16;98666.53;;;12.54;100.00